Terminal Aerodrome Forecast
Issued by NWS

Home | Current Version | Previous Version | Text Only | Print | Product List | Glossary On
Versions: 1 2 3 4 5 6 7 8 9 10 11 12 13 14 15 16 17 18
000
FTUS43 KSGF 312100 AAA
TAFJLN
TAF AMD
KJLN 312112Z 3121/0118 16008KT P6SM VCSH OVC050
     FM312300 17009KT 5SM -RA BR SCT020 OVC040
     FM010300 17012KT 4SM -RA BR OVC015
     FM010500 18012KT 3SM -RA BR OVC007
     FM011500 28015G22KT 4SM -RASN BR OVC007=

USA.gov is the U.S. government's official web portal to all federal, state and local government web resources and services.